sensor_id;sensor_type;location;lat;lon;timestamp;P1;durP1;ratioP1;P2;durP2;ratioP2
12334;SDS011;6233;51.560;9.986;2023-04-15T00:02:19;10.50;;;9.33;;
12334;SDS011;6233;51.560;9.986;2023-04-15T00:05:21;10.93;;;9.60;;
12334;SDS011;6233;51.560;9.986;2023-04-15T00:08:23;9.57;;;8.53;;
12334;SDS011;6233;51.560;9.986;2023-04-15T00:11:25;9.20;;;8.30;;
12334;SDS011;6233;51.560;9.986;2023-04-15T00:14:27;11.93;;;9.47;;
12334;SDS011;6233;51.560;9.986;2023-04-15T00:17:29;9.83;;;8.77;;
12334;SDS011;6233;51.560;9.986;2023-04-15T00:20:31;10.20;;;9.00;;
12334;SDS011;6233;51.560;9.986;2023-04-15T00:23:32;10.40;;;9.13;;
12334;SDS011;6233;51.560;9.986;2023-04-15T00:30:00;11.43;;;9.73;;
12334;SDS011;6233;51.560;9.986;2023-04-15T00:33:02;12.00;;;9.67;;
12334;SDS011;6233;51.560;9.986;2023-04-15T00:36:05;11.17;;;9.97;;
12334;SDS011;6233;51.560;9.986;2023-04-15T00:39:07;12.53;;;10.23;;
12334;SDS011;6233;51.560;9.986;2023-04-15T00:42:09;10.20;;;9.20;;
12334;SDS011;6233;51.560;9.986;2023-04-15T00:45:11;12.50;;;10.50;;
12334;SDS011;6233;51.560;9.986;2023-04-15T00:48:13;10.70;;;9.57;;
12334;SDS011;6233;51.560;9.986;2023-04-15T00:51:15;10.70;;;9.30;;
12334;SDS011;6233;51.560;9.986;2023-04-15T00:54:17;11.83;;;9.03;;
12334;SDS011;6233;51.560;9.986;2023-04-15T00:57:20;9.50;;;8.50;;
12334;SDS011;6233;51.560;9.986;2023-04-15T01:00:22;10.63;;;8.97;;
12334;SDS011;6233;51.560;9.986;2023-04-15T01:03:25;10.10;;;9.03;;
12334;SDS011;6233;51.560;9.986;2023-04-15T01:06:27;9.77;;;8.57;;
12334;SDS011;6233;51.560;9.986;2023-04-15T01:09:29;10.97;;;9.47;;
12334;SDS011;6233;51.560;9.986;2023-04-15T01:12:31;10.97;;;9.70;;
12334;SDS011;6233;51.560;9.986;2023-04-15T01:15:34;10.50;;;9.40;;
12334;SDS011;6233;51.560;9.986;2023-04-15T01:18:36;11.47;;;9.53;;
12334;SDS011;6233;51.560;9.986;2023-04-15T01:21:38;11.23;;;9.63;;
12334;SDS011;6233;51.560;9.986;2023-04-15T01:24:41;12.93;;;9.60;;
12334;SDS011;6233;51.560;9.986;2023-04-15T01:27:49;11.67;;;9.23;;
12334;SDS011;6233;51.560;9.986;2023-04-15T01:31:04;10.23;;;9.00;;
12334;SDS011;6233;51.560;9.986;2023-04-15T01:34:10;12.57;;;9.50;;
12334;SDS011;6233;51.560;9.986;2023-04-15T01:37:12;10.77;;;9.20;;
12334;SDS011;6233;51.560;9.986;2023-04-15T01:40:14;10.93;;;9.83;;
12334;SDS011;6233;51.560;9.986;2023-04-15T01:43:16;12.77;;;10.13;;
12334;SDS011;6233;51.560;9.986;2023-04-15T01:46:19;11.23;;;9.63;;
12334;SDS011;6233;51.560;9.986;2023-04-15T01:49:21;10.40;;;9.07;;
12334;SDS011;6233;51.560;9.986;2023-04-15T01:52:22;10.17;;;9.17;;
12334;SDS011;6233;51.560;9.986;2023-04-15T01:55:24;10.47;;;8.53;;
12334;SDS011;6233;51.560;9.986;2023-04-15T01:58:26;11.63;;;9.50;;
12334;SDS011;6233;51.560;9.986;2023-04-15T02:01:28;11.60;;;9.97;;
12334;SDS011;6233;51.560;9.986;2023-04-15T02:04:29;12.40;;;9.43;;
12334;SDS011;6233;51.560;9.986;2023-04-15T02:07:31;10.90;;;9.40;;
12334;SDS011;6233;51.560;9.986;2023-04-15T02:10:33;10.23;;;9.13;;
12334;SDS011;6233;51.560;9.986;2023-04-15T02:13:35;9.73;;;8.73;;
12334;SDS011;6233;51.560;9.986;2023-04-15T02:16:38;10.63;;;9.27;;
12334;SDS011;6233;51.560;9.986;2023-04-15T02:19:39;9.83;;;8.83;;
12334;SDS011;6233;51.560;9.986;2023-04-15T02:22:41;11.33;;;8.97;;
12334;SDS011;6233;51.560;9.986;2023-04-15T02:25:43;11.63;;;9.43;;
12334;SDS011;6233;51.560;9.986;2023-04-15T02:28:54;11.53;;;9.30;;
12334;SDS011;6233;51.560;9.986;2023-04-15T02:31:56;11.43;;;10.27;;
12334;SDS011;6233;51.560;9.986;2023-04-15T02:35:01;11.77;;;10.10;;
12334;SDS011;6233;51.560;9.986;2023-04-15T02:38:04;12.10;;;10.00;;
12334;SDS011;6233;51.560;9.986;2023-04-15T02:41:05;10.90;;;9.70;;
12334;SDS011;6233;51.560;9.986;2023-04-15T02:44:07;12.13;;;9.60;;
12334;SDS011;6233;51.560;9.986;2023-04-15T02:47:11;11.70;;;10.43;;
12334;SDS011;6233;51.560;9.986;2023-04-15T02:50:14;12.17;;;10.03;;
12334;SDS011;6233;51.560;9.986;2023-04-15T02:53:16;11.63;;;10.27;;
12334;SDS011;6233;51.560;9.986;2023-04-15T02:56:20;12.60;;;10.23;;
12334;SDS011;6233;51.560;9.986;2023-04-15T02:59:23;12.13;;;10.33;;
12334;SDS011;6233;51.560;9.986;2023-04-15T03:02:25;12.33;;;10.33;;
12334;SDS011;6233;51.560;9.986;2023-04-15T03:05:27;12.27;;;10.47;;
12334;SDS011;6233;51.560;9.986;2023-04-15T03:08:29;14.00;;;10.63;;
12334;SDS011;6233;51.560;9.986;2023-04-15T03:11:31;13.83;;;11.07;;
12334;SDS011;6233;51.560;9.986;2023-04-15T03:14:36;12.60;;;10.70;;
12334;SDS011;6233;51.560;9.986;2023-04-15T03:17:38;13.37;;;11.43;;
12334;SDS011;6233;51.560;9.986;2023-04-15T03:20:40;12.97;;;10.70;;
12334;SDS011;6233;51.560;9.986;2023-04-15T03:23:42;15.60;;;11.37;;
12334;SDS011;6233;51.560;9.986;2023-04-15T03:26:43;12.73;;;10.13;;
12334;SDS011;6233;51.560;9.986;2023-04-15T03:29:45;13.73;;;11.27;;
12334;SDS011;6233;51.560;9.986;2023-04-15T03:32:47;11.67;;;9.50;;
12334;SDS011;6233;51.560;9.986;2023-04-15T03:35:49;13.23;;;10.17;;
12334;SDS011;6233;51.560;9.986;2023-04-15T03:38:52;13.47;;;10.80;;
12334;SDS011;6233;51.560;9.986;2023-04-15T03:41:54;15.80;;;11.77;;
12334;SDS011;6233;51.560;9.986;2023-04-15T03:44:56;14.57;;;12.13;;
12334;SDS011;6233;51.560;9.986;2023-04-15T03:47:58;15.63;;;12.80;;
12334;SDS011;6233;51.560;9.986;2023-04-15T03:51:16;16.30;;;12.87;;
12334;SDS011;6233;51.560;9.986;2023-04-15T03:54:18;18.73;;;14.07;;
12334;SDS011;6233;51.560;9.986;2023-04-15T03:57:20;17.30;;;13.03;;
12334;SDS011;6233;51.560;9.986;2023-04-15T04:00:21;19.60;;;14.03;;
12334;SDS011;6233;51.560;9.986;2023-04-15T04:03:23;18.40;;;14.13;;
12334;SDS011;6233;51.560;9.986;2023-04-15T04:06:25;18.33;;;14.37;;
12334;SDS011;6233;51.560;9.986;2023-04-15T04:09:27;21.07;;;15.03;;
12334;SDS011;6233;51.560;9.986;2023-04-15T04:12:29;19.37;;;14.23;;
12334;SDS011;6233;51.560;9.986;2023-04-15T04:15:31;23.27;;;15.53;;
12334;SDS011;6233;51.560;9.986;2023-04-15T04:18:33;18.40;;;14.00;;
12334;SDS011;6233;51.560;9.986;2023-04-15T04:21:35;20.63;;;15.93;;
12334;SDS011;6233;51.560;9.986;2023-04-15T04:24:36;18.80;;;13.67;;
12334;SDS011;6233;51.560;9.986;2023-04-15T04:27:38;20.43;;;14.80;;
12334;SDS011;6233;51.560;9.986;2023-04-15T04:30:40;20.47;;;15.03;;
12334;SDS011;6233;51.560;9.986;2023-04-15T04:33:42;21.20;;;15.03;;
12334;SDS011;6233;51.560;9.986;2023-04-15T04:36:44;20.53;;;13.93;;
12334;SDS011;6233;51.560;9.986;2023-04-15T04:39:46;20.77;;;14.47;;
12334;SDS011;6233;51.560;9.986;2023-04-15T04:42:47;21.97;;;15.07;;
12334;SDS011;6233;51.560;9.986;2023-04-15T04:45:49;22.27;;;15.70;;
12334;SDS011;6233;51.560;9.986;2023-04-15T04:48:51;21.67;;;16.23;;
12334;SDS011;6233;51.560;9.986;2023-04-15T04:51:53;25.87;;;17.30;;
12334;SDS011;6233;51.560;9.986;2023-04-15T04:54:55;23.07;;;16.53;;
12334;SDS011;6233;51.560;9.986;2023-04-15T04:57:57;21.80;;;16.40;;
12334;SDS011;6233;51.560;9.986;2023-04-15T05:00:58;24.43;;;16.63;;
12334;SDS011;6233;51.560;9.986;2023-04-15T05:04:01;24.87;;;16.07;;
12334;SDS011;6233;51.560;9.986;2023-04-15T05:07:05;21.53;;;15.57;;
12334;SDS011;6233;51.560;9.986;2023-04-15T05:10:07;20.77;;;15.83;;
12334;SDS011;6233;51.560;9.986;2023-04-15T05:13:09;24.03;;;15.57;;
12334;SDS011;6233;51.560;9.986;2023-04-15T05:16:11;21.83;;;15.97;;
12334;SDS011;6233;51.560;9.986;2023-04-15T05:19:13;22.30;;;15.80;;
12334;SDS011;6233;51.560;9.986;2023-04-15T05:22:14;20.27;;;14.77;;
12334;SDS011;6233;51.560;9.986;2023-04-15T05:25:16;22.37;;;15.53;;
12334;SDS011;6233;51.560;9.986;2023-04-15T05:28:18;28.80;;;19.17;;
12334;SDS011;6233;51.560;9.986;2023-04-15T05:31:20;23.83;;;16.50;;
12334;SDS011;6233;51.560;9.986;2023-04-15T05:34:22;21.20;;;14.40;;
12334;SDS011;6233;51.560;9.986;2023-04-15T05:37:23;23.13;;;15.73;;
12334;SDS011;6233;51.560;9.986;2023-04-15T05:40:25;18.93;;;13.70;;
12334;SDS011;6233;51.560;9.986;2023-04-15T05:43:27;20.27;;;14.20;;
12334;SDS011;6233;51.560;9.986;2023-04-15T05:46:29;25.03;;;14.80;;
12334;SDS011;6233;51.560;9.986;2023-04-15T05:53:53;21.03;;;14.33;;
12334;SDS011;6233;51.560;9.986;2023-04-15T05:56:55;21.10;;;14.03;;
12334;SDS011;6233;51.560;9.986;2023-04-15T05:59:57;19.33;;;13.53;;
12334;SDS011;6233;51.560;9.986;2023-04-15T06:02:59;16.93;;;12.43;;
12334;SDS011;6233;51.560;9.986;2023-04-15T06:06:01;23.87;;;17.57;;
12334;SDS011;6233;51.560;9.986;2023-04-15T06:09:03;21.23;;;14.30;;
12334;SDS011;6233;51.560;9.986;2023-04-15T06:12:05;17.93;;;13.27;;
12334;SDS011;6233;51.560;9.986;2023-04-15T06:15:12;20.83;;;13.93;;
12334;SDS011;6233;51.560;9.986;2023-04-15T06:18:14;21.73;;;14.00;;
12334;SDS011;6233;51.560;9.986;2023-04-15T06:21:15;20.80;;;13.73;;
12334;SDS011;6233;51.560;9.986;2023-04-15T06:24:17;21.53;;;15.33;;
12334;SDS011;6233;51.560;9.986;2023-04-15T06:27:19;18.60;;;12.83;;
12334;SDS011;6233;51.560;9.986;2023-04-15T06:30:21;19.20;;;13.60;;
12334;SDS011;6233;51.560;9.986;2023-04-15T06:33:24;17.93;;;13.20;;
12334;SDS011;6233;51.560;9.986;2023-04-15T06:36:26;20.40;;;12.97;;
12334;SDS011;6233;51.560;9.986;2023-04-15T06:43:04;19.10;;;13.60;;
12334;SDS011;6233;51.560;9.986;2023-04-15T06:46:05;20.97;;;14.17;;
12334;SDS011;6233;51.560;9.986;2023-04-15T06:49:07;21.07;;;14.70;;
12334;SDS011;6233;51.560;9.986;2023-04-15T06:52:09;20.30;;;13.27;;
12334;SDS011;6233;51.560;9.986;2023-04-15T06:55:11;19.87;;;14.10;;
12334;SDS011;6233;51.560;9.986;2023-04-15T06:58:13;17.77;;;12.20;;
12334;SDS011;6233;51.560;9.986;2023-04-15T07:01:15;20.50;;;14.17;;
12334;SDS011;6233;51.560;9.986;2023-04-15T07:04:16;22.97;;;14.97;;
12334;SDS011;6233;51.560;9.986;2023-04-15T07:07:18;23.30;;;15.23;;
12334;SDS011;6233;51.560;9.986;2023-04-15T07:10:20;21.33;;;14.87;;
12334;SDS011;6233;51.560;9.986;2023-04-15T07:13:24;20.50;;;14.63;;
12334;SDS011;6233;51.560;9.986;2023-04-15T07:16:26;21.43;;;14.47;;
12334;SDS011;6233;51.560;9.986;2023-04-15T07:19:30;19.67;;;13.53;;
12334;SDS011;6233;51.560;9.986;2023-04-15T07:22:31;22.43;;;14.97;;
12334;SDS011;6233;51.560;9.986;2023-04-15T07:25:34;20.70;;;14.50;;
12334;SDS011;6233;51.560;9.986;2023-04-15T07:28:35;20.40;;;14.63;;
12334;SDS011;6233;51.560;9.986;2023-04-15T07:31:38;19.73;;;14.43;;
12334;SDS011;6233;51.560;9.986;2023-04-15T07:34:40;21.27;;;15.20;;
12334;SDS011;6233;51.560;9.986;2023-04-15T07:37:43;20.43;;;14.20;;
12334;SDS011;6233;51.560;9.986;2023-04-15T07:40:45;19.97;;;14.03;;
12334;SDS011;6233;51.560;9.986;2023-04-15T07:43:47;21.33;;;14.27;;
12334;SDS011;6233;51.560;9.986;2023-04-15T07:46:49;18.67;;;13.17;;
12334;SDS011;6233;51.560;9.986;2023-04-15T07:49:50;16.97;;;12.67;;
12334;SDS011;6233;51.560;9.986;2023-04-15T07:52:53;15.47;;;11.33;;
12334;SDS011;6233;51.560;9.986;2023-04-15T07:55:54;14.93;;;11.03;;
12334;SDS011;6233;51.560;9.986;2023-04-15T07:59:01;14.10;;;11.03;;
12334;SDS011;6233;51.560;9.986;2023-04-15T08:02:04;14.13;;;10.27;;
12334;SDS011;6233;51.560;9.986;2023-04-15T08:05:07;13.20;;;9.60;;
12334;SDS011;6233;51.560;9.986;2023-04-15T08:08:10;13.73;;;9.70;;
12334;SDS011;6233;51.560;9.986;2023-04-15T08:11:13;12.37;;;8.40;;
12334;SDS011;6233;51.560;9.986;2023-04-15T08:14:15;10.00;;;7.23;;
12334;SDS011;6233;51.560;9.986;2023-04-15T08:17:17;9.70;;;7.90;;
12334;SDS011;6233;51.560;9.986;2023-04-15T08:20:18;9.67;;;7.20;;
12334;SDS011;6233;51.560;9.986;2023-04-15T08:23:20;9.40;;;7.10;;
12334;SDS011;6233;51.560;9.986;2023-04-15T08:26:22;9.40;;;7.10;;
12334;SDS011;6233;51.560;9.986;2023-04-15T08:29:24;9.90;;;7.70;;
12334;SDS011;6233;51.560;9.986;2023-04-15T08:32:26;9.00;;;7.20;;
12334;SDS011;6233;51.560;9.986;2023-04-15T08:35:28;9.60;;;7.93;;
12334;SDS011;6233;51.560;9.986;2023-04-15T08:38:29;7.60;;;6.23;;
12334;SDS011;6233;51.560;9.986;2023-04-15T08:41:33;7.37;;;6.10;;
12334;SDS011;6233;51.560;9.986;2023-04-15T08:44:44;7.40;;;6.17;;
12334;SDS011;6233;51.560;9.986;2023-04-15T08:47:47;7.50;;;6.07;;
12334;SDS011;6233;51.560;9.986;2023-04-15T08:50:54;7.43;;;6.63;;
12334;SDS011;6233;51.560;9.986;2023-04-15T08:53:56;7.77;;;6.47;;
12334;SDS011;6233;51.560;9.986;2023-04-15T08:56:58;7.33;;;6.10;;
12334;SDS011;6233;51.560;9.986;2023-04-15T09:00:00;8.30;;;6.80;;
12334;SDS011;6233;51.560;9.986;2023-04-15T09:03:07;7.00;;;5.90;;
12334;SDS011;6233;51.560;9.986;2023-04-15T09:06:10;8.23;;;6.63;;
12334;SDS011;6233;51.560;9.986;2023-04-15T09:09:12;6.70;;;5.97;;
12334;SDS011;6233;51.560;9.986;2023-04-15T09:12:14;8.07;;;5.97;;
12334;SDS011;6233;51.560;9.986;2023-04-15T09:15:17;8.67;;;6.90;;
12334;SDS011;6233;51.560;9.986;2023-04-15T09:18:26;8.50;;;5.93;;
12334;SDS011;6233;51.560;9.986;2023-04-15T09:21:32;6.53;;;5.03;;
12334;SDS011;6233;51.560;9.986;2023-04-15T09:24:35;6.13;;;5.17;;
12334;SDS011;6233;51.560;9.986;2023-04-15T09:27:45;5.13;;;4.63;;
12334;SDS011;6233;51.560;9.986;2023-04-15T09:30:54;6.60;;;5.00;;
12334;SDS011;6233;51.560;9.986;2023-04-15T09:33:57;5.77;;;4.60;;
12334;SDS011;6233;51.560;9.986;2023-04-15T09:36:59;6.03;;;4.73;;
12334;SDS011;6233;51.560;9.986;2023-04-15T09:40:01;4.77;;;4.10;;
12334;SDS011;6233;51.560;9.986;2023-04-15T09:43:03;5.53;;;4.53;;
12334;SDS011;6233;51.560;9.986;2023-04-15T09:46:06;5.37;;;4.67;;
12334;SDS011;6233;51.560;9.986;2023-04-15T09:49:08;4.23;;;3.83;;
12334;SDS011;6233;51.560;9.986;2023-04-15T09:52:12;5.53;;;4.63;;
12334;SDS011;6233;51.560;9.986;2023-04-15T09:55:14;5.20;;;4.23;;
12334;SDS011;6233;51.560;9.986;2023-04-15T09:58:25;4.80;;;3.93;;
12334;SDS011;6233;51.560;9.986;2023-04-15T10:01:28;4.73;;;4.23;;
12334;SDS011;6233;51.560;9.986;2023-04-15T10:04:31;5.43;;;4.10;;
12334;SDS011;6233;51.560;9.986;2023-04-15T10:07:37;4.73;;;4.00;;
12334;SDS011;6233;51.560;9.986;2023-04-15T10:10:41;5.93;;;4.20;;
12334;SDS011;6233;51.560;9.986;2023-04-15T10:13:43;6.80;;;5.30;;
12334;SDS011;6233;51.560;9.986;2023-04-15T10:16:45;5.67;;;4.83;;
12334;SDS011;6233;51.560;9.986;2023-04-15T10:19:49;5.43;;;4.37;;
12334;SDS011;6233;51.560;9.986;2023-04-15T10:22:54;6.10;;;4.73;;
12334;SDS011;6233;51.560;9.986;2023-04-15T10:25:56;6.00;;;5.03;;
12334;SDS011;6233;51.560;9.986;2023-04-15T10:28:59;5.27;;;4.70;;
12334;SDS011;6233;51.560;9.986;2023-04-15T10:32:02;5.73;;;4.47;;
12334;SDS011;6233;51.560;9.986;2023-04-15T10:35:05;5.27;;;4.53;;
12334;SDS011;6233;51.560;9.986;2023-04-15T10:38:30;6.00;;;4.53;;
12334;SDS011;6233;51.560;9.986;2023-04-15T10:41:34;5.43;;;4.87;;
12334;SDS011;6233;51.560;9.986;2023-04-15T10:44:36;5.97;;;4.73;;
12334;SDS011;6233;51.560;9.986;2023-04-15T10:47:39;5.37;;;4.77;;
12334;SDS011;6233;51.560;9.986;2023-04-15T10:50:54;6.47;;;5.10;;
12334;SDS011;6233;51.560;9.986;2023-04-15T10:54:01;6.10;;;5.10;;
12334;SDS011;6233;51.560;9.986;2023-04-15T11:03:10;6.27;;;5.13;;
12334;SDS011;6233;51.560;9.986;2023-04-15T11:06:12;5.67;;;4.77;;
12334;SDS011;6233;51.560;9.986;2023-04-15T11:09:29;7.63;;;5.17;;
12334;SDS011;6233;51.560;9.986;2023-04-15T11:12:34;6.40;;;5.67;;
12334;SDS011;6233;51.560;9.986;2023-04-15T11:15:37;9.50;;;5.90;;
12334;SDS011;6233;51.560;9.986;2023-04-15T11:18:41;8.83;;;5.50;;
12334;SDS011;6233;51.560;9.986;2023-04-15T11:21:56;7.47;;;5.83;;
12334;SDS011;6233;51.560;9.986;2023-04-15T11:25:06;7.33;;;5.60;;
12334;SDS011;6233;51.560;9.986;2023-04-15T11:28:08;7.67;;;6.00;;
12334;SDS011;6233;51.560;9.986;2023-04-15T11:31:14;9.10;;;6.50;;
12334;SDS011;6233;51.560;9.986;2023-04-15T11:34:31;8.93;;;6.73;;
12334;SDS011;6233;51.560;9.986;2023-04-15T11:37:35;8.97;;;6.87;;
12334;SDS011;6233;51.560;9.986;2023-04-15T11:40:37;8.90;;;6.97;;
12334;SDS011;6233;51.560;9.986;2023-04-15T11:43:40;8.67;;;6.43;;
12334;SDS011;6233;51.560;9.986;2023-04-15T11:46:42;9.53;;;7.07;;
12334;SDS011;6233;51.560;9.986;2023-04-15T11:49:45;12.33;;;8.13;;
12334;SDS011;6233;51.560;9.986;2023-04-15T11:56:00;10.20;;;6.83;;
12334;SDS011;6233;51.560;9.986;2023-04-15T11:59:02;10.67;;;7.40;;
12334;SDS011;6233;51.560;9.986;2023-04-15T12:02:10;10.23;;;7.40;;
12334;SDS011;6233;51.560;9.986;2023-04-15T12:05:13;9.53;;;7.20;;
12334;SDS011;6233;51.560;9.986;2023-04-15T12:08:14;10.43;;;7.53;;
12334;SDS011;6233;51.560;9.986;2023-04-15T12:11:20;16.83;;;7.93;;
12334;SDS011;6233;51.560;9.986;2023-04-15T12:14:28;14.30;;;7.17;;
12334;SDS011;6233;51.560;9.986;2023-04-15T12:17:32;14.77;;;7.80;;
12334;SDS011;6233;51.560;9.986;2023-04-15T12:20:52;12.73;;;7.73;;
12334;SDS011;6233;51.560;9.986;2023-04-15T12:23:55;12.53;;;7.70;;
12334;SDS011;6233;51.560;9.986;2023-04-15T12:27:00;13.23;;;6.97;;
12334;SDS011;6233;51.560;9.986;2023-04-15T12:30:06;12.10;;;7.93;;
12334;SDS011;6233;51.560;9.986;2023-04-15T12:33:09;14.17;;;8.00;;
12334;SDS011;6233;51.560;9.986;2023-04-15T12:36:10;24.53;;;9.13;;
12334;SDS011;6233;51.560;9.986;2023-04-15T12:39:12;21.83;;;9.33;;
12334;SDS011;6233;51.560;9.986;2023-04-15T12:42:15;17.90;;;8.20;;
12334;SDS011;6233;51.560;9.986;2023-04-15T12:45:18;27.20;;;9.97;;
12334;SDS011;6233;51.560;9.986;2023-04-15T12:48:19;24.90;;;9.10;;
12334;SDS011;6233;51.560;9.986;2023-04-15T12:51:21;24.60;;;9.30;;
12334;SDS011;6233;51.560;9.986;2023-04-15T12:54:23;43.67;;;11.20;;
12334;SDS011;6233;51.560;9.986;2023-04-15T12:57:25;25.60;;;10.73;;
12334;SDS011;6233;51.560;9.986;2023-04-15T13:00:28;33.47;;;10.73;;
12334;SDS011;6233;51.560;9.986;2023-04-15T13:03:30;29.80;;;10.73;;
12334;SDS011;6233;51.560;9.986;2023-04-15T13:06:32;18.00;;;9.60;;
12334;SDS011;6233;51.560;9.986;2023-04-15T13:09:34;22.10;;;10.27;;
12334;SDS011;6233;51.560;9.986;2023-04-15T13:12:35;39.00;;;11.30;;
12334;SDS011;6233;51.560;9.986;2023-04-15T13:15:37;26.87;;;10.40;;
12334;SDS011;6233;51.560;9.986;2023-04-15T13:18:39;28.53;;;10.23;;
12334;SDS011;6233;51.560;9.986;2023-04-15T13:21:41;33.17;;;12.33;;
12334;SDS011;6233;51.560;9.986;2023-04-15T13:24:42;36.03;;;11.90;;
12334;SDS011;6233;51.560;9.986;2023-04-15T13:27:44;40.13;;;11.93;;
12334;SDS011;6233;51.560;9.986;2023-04-15T13:30:46;21.97;;;10.60;;
12334;SDS011;6233;51.560;9.986;2023-04-15T13:33:49;26.23;;;10.67;;
12334;SDS011;6233;51.560;9.986;2023-04-15T13:36:51;16.00;;;9.90;;
12334;SDS011;6233;51.560;9.986;2023-04-15T13:39:53;16.80;;;9.80;;
12334;SDS011;6233;51.560;9.986;2023-04-15T13:42:55;14.97;;;9.83;;
12334;SDS011;6233;51.560;9.986;2023-04-15T13:45:58;14.43;;;9.33;;
12334;SDS011;6233;51.560;9.986;2023-04-15T13:49:00;14.83;;;9.00;;
12334;SDS011;6233;51.560;9.986;2023-04-15T13:52:02;13.73;;;9.50;;
12334;SDS011;6233;51.560;9.986;2023-04-15T13:55:04;15.73;;;9.30;;
12334;SDS011;6233;51.560;9.986;2023-04-15T13:58:20;12.53;;;8.33;;
12334;SDS011;6233;51.560;9.986;2023-04-15T14:01:22;13.50;;;9.23;;
12334;SDS011;6233;51.560;9.986;2023-04-15T14:04:24;12.60;;;8.47;;
12334;SDS011;6233;51.560;9.986;2023-04-15T14:07:27;14.33;;;9.60;;
12334;SDS011;6233;51.560;9.986;2023-04-15T14:10:29;14.67;;;9.40;;
12334;SDS011;6233;51.560;9.986;2023-04-15T14:13:31;14.60;;;9.37;;
12334;SDS011;6233;51.560;9.986;2023-04-15T14:16:33;16.10;;;9.97;;
12334;SDS011;6233;51.560;9.986;2023-04-15T14:19:35;16.10;;;9.30;;
12334;SDS011;6233;51.560;9.986;2023-04-15T14:22:37;14.47;;;9.10;;
12334;SDS011;6233;51.560;9.986;2023-04-15T14:25:38;15.80;;;10.30;;
12334;SDS011;6233;51.560;9.986;2023-04-15T14:28:40;18.63;;;9.63;;
12334;SDS011;6233;51.560;9.986;2023-04-15T14:31:45;18.97;;;10.67;;
12334;SDS011;6233;51.560;9.986;2023-04-15T14:35:06;15.67;;;10.33;;
12334;SDS011;6233;51.560;9.986;2023-04-15T14:38:08;17.40;;;10.63;;
12334;SDS011;6233;51.560;9.986;2023-04-15T14:41:11;16.07;;;10.33;;
12334;SDS011;6233;51.560;9.986;2023-04-15T14:44:13;16.03;;;10.70;;
12334;SDS011;6233;51.560;9.986;2023-04-15T14:47:15;15.50;;;10.33;;
12334;SDS011;6233;51.560;9.986;2023-04-15T14:50:17;21.97;;;13.90;;
12334;SDS011;6233;51.560;9.986;2023-04-15T14:53:19;18.90;;;11.07;;
12334;SDS011;6233;51.560;9.986;2023-04-15T14:56:21;20.87;;;11.63;;
12334;SDS011;6233;51.560;9.986;2023-04-15T14:59:23;18.10;;;11.63;;
12334;SDS011;6233;51.560;9.986;2023-04-15T15:02:25;19.53;;;12.50;;
12334;SDS011;6233;51.560;9.986;2023-04-15T15:05:40;19.33;;;12.13;;
12334;SDS011;6233;51.560;9.986;2023-04-15T15:08:43;23.13;;;14.17;;
12334;SDS011;6233;51.560;9.986;2023-04-15T15:11:46;21.23;;;13.03;;
12334;SDS011;6233;51.560;9.986;2023-04-15T15:14:48;19.07;;;12.07;;
12334;SDS011;6233;51.560;9.986;2023-04-15T15:17:49;21.97;;;13.03;;
12334;SDS011;6233;51.560;9.986;2023-04-15T15:20:51;20.57;;;12.97;;
12334;SDS011;6233;51.560;9.986;2023-04-15T15:23:53;25.13;;;14.80;;
12334;SDS011;6233;51.560;9.986;2023-04-15T15:26:54;25.70;;;16.03;;
12334;SDS011;6233;51.560;9.986;2023-04-15T15:29:57;27.23;;;15.63;;
12334;SDS011;6233;51.560;9.986;2023-04-15T15:32:59;31.13;;;17.90;;
12334;SDS011;6233;51.560;9.986;2023-04-15T15:36:00;37.67;;;21.30;;
12334;SDS011;6233;51.560;9.986;2023-04-15T15:39:04;44.17;;;22.57;;
12334;SDS011;6233;51.560;9.986;2023-04-15T15:42:06;38.87;;;21.57;;
12334;SDS011;6233;51.560;9.986;2023-04-15T15:45:08;36.73;;;20.97;;
12334;SDS011;6233;51.560;9.986;2023-04-15T15:48:10;38.63;;;22.10;;
12334;SDS011;6233;51.560;9.986;2023-04-15T15:54:55;42.13;;;22.20;;
12334;SDS011;6233;51.560;9.986;2023-04-15T15:57:57;40.37;;;23.20;;
12334;SDS011;6233;51.560;9.986;2023-04-15T16:01:00;40.93;;;22.93;;
12334;SDS011;6233;51.560;9.986;2023-04-15T16:04:11;47.53;;;25.87;;
12334;SDS011;6233;51.560;9.986;2023-04-15T16:07:13;50.83;;;28.57;;
12334;SDS011;6233;51.560;9.986;2023-04-15T16:10:16;52.40;;;27.23;;
12334;SDS011;6233;51.560;9.986;2023-04-15T16:13:17;52.77;;;29.87;;
12334;SDS011;6233;51.560;9.986;2023-04-15T16:16:19;50.53;;;29.07;;
12334;SDS011;6233;51.560;9.986;2023-04-15T16:19:22;59.90;;;31.30;;
12334;SDS011;6233;51.560;9.986;2023-04-15T16:22:43;57.20;;;32.37;;
12334;SDS011;6233;51.560;9.986;2023-04-15T16:25:45;53.10;;;32.03;;
12334;SDS011;6233;51.560;9.986;2023-04-15T16:28:47;62.00;;;33.80;;
12334;SDS011;6233;51.560;9.986;2023-04-15T16:31:49;59.40;;;31.70;;
12334;SDS011;6233;51.560;9.986;2023-04-15T16:34:51;62.03;;;35.50;;
12334;SDS011;6233;51.560;9.986;2023-04-15T16:37:53;70.37;;;38.53;;
12334;SDS011;6233;51.560;9.986;2023-04-15T16:40:56;68.23;;;35.33;;
12334;SDS011;6233;51.560;9.986;2023-04-15T16:44:00;64.40;;;33.73;;
12334;SDS011;6233;51.560;9.986;2023-04-15T16:47:03;58.23;;;34.03;;
12334;SDS011;6233;51.560;9.986;2023-04-15T16:50:05;59.13;;;33.97;;
12334;SDS011;6233;51.560;9.986;2023-04-15T16:53:08;68.17;;;37.13;;
12334;SDS011;6233;51.560;9.986;2023-04-15T16:56:10;62.97;;;34.77;;
12334;SDS011;6233;51.560;9.986;2023-04-15T16:59:11;60.60;;;35.67;;
12334;SDS011;6233;51.560;9.986;2023-04-15T17:02:13;61.67;;;35.17;;
12334;SDS011;6233;51.560;9.986;2023-04-15T17:05:15;65.83;;;37.87;;
12334;SDS011;6233;51.560;9.986;2023-04-15T17:08:17;65.07;;;36.97;;
12334;SDS011;6233;51.560;9.986;2023-04-15T17:11:19;66.17;;;35.37;;
12334;SDS011;6233;51.560;9.986;2023-04-15T17:14:21;63.40;;;35.00;;
12334;SDS011;6233;51.560;9.986;2023-04-15T17:17:23;64.30;;;35.87;;
12334;SDS011;6233;51.560;9.986;2023-04-15T17:20:24;66.10;;;35.70;;
12334;SDS011;6233;51.560;9.986;2023-04-15T17:23:26;66.30;;;36.23;;
12334;SDS011;6233;51.560;9.986;2023-04-15T17:26:28;62.83;;;35.60;;
12334;SDS011;6233;51.560;9.986;2023-04-15T17:29:31;64.07;;;34.97;;
12334;SDS011;6233;51.560;9.986;2023-04-15T17:32:33;66.13;;;37.23;;
12334;SDS011;6233;51.560;9.986;2023-04-15T17:35:35;63.03;;;36.53;;
12334;SDS011;6233;51.560;9.986;2023-04-15T17:38:37;63.93;;;36.50;;
12334;SDS011;6233;51.560;9.986;2023-04-15T17:41:39;67.97;;;38.30;;
12334;SDS011;6233;51.560;9.986;2023-04-15T17:44:41;63.80;;;37.63;;
12334;SDS011;6233;51.560;9.986;2023-04-15T17:47:42;69.37;;;40.10;;
12334;SDS011;6233;51.560;9.986;2023-04-15T17:50:44;64.53;;;38.97;;
12334;SDS011;6233;51.560;9.986;2023-04-15T17:57:17;78.17;;;41.83;;
12334;SDS011;6233;51.560;9.986;2023-04-15T18:00:20;64.53;;;38.57;;
12334;SDS011;6233;51.560;9.986;2023-04-15T18:03:22;64.23;;;37.63;;
12334;SDS011;6233;51.560;9.986;2023-04-15T18:06:24;65.57;;;37.30;;
12334;SDS011;6233;51.560;9.986;2023-04-15T18:09:27;63.53;;;35.87;;
12334;SDS011;6233;51.560;9.986;2023-04-15T18:12:28;58.60;;;34.60;;
12334;SDS011;6233;51.560;9.986;2023-04-15T18:15:31;59.77;;;34.27;;
12334;SDS011;6233;51.560;9.986;2023-04-15T18:18:38;56.43;;;33.37;;
12334;SDS011;6233;51.560;9.986;2023-04-15T18:21:44;61.43;;;34.93;;
12334;SDS011;6233;51.560;9.986;2023-04-15T18:24:46;56.67;;;34.40;;
12334;SDS011;6233;51.560;9.986;2023-04-15T18:27:50;53.37;;;32.73;;
12334;SDS011;6233;51.560;9.986;2023-04-15T18:34:29;42.97;;;27.70;;
12334;SDS011;6233;51.560;9.986;2023-04-15T18:37:31;41.37;;;27.37;;
12334;SDS011;6233;51.560;9.986;2023-04-15T18:40:34;42.83;;;27.50;;
12334;SDS011;6233;51.560;9.986;2023-04-15T18:43:36;36.73;;;24.47;;
12334;SDS011;6233;51.560;9.986;2023-04-15T18:46:38;37.73;;;24.80;;
12334;SDS011;6233;51.560;9.986;2023-04-15T18:49:40;39.03;;;24.10;;